Terminal Aerodrome Forecast
Issued by NWS

Home | Current Version | Previous Version | Text Only | Print | Product List | Glossary Off
Versions: 1 2 3 4 5 6 7 8 9 10 11 12 13 14

000
FTUS43 KICT 201100
TAFRSL
TAF
KRSL 201122Z 2012/2112 18017G25KT P6SM SCT008
     FM201600 17020G27KT P6SM SCT050
     FM210200 17015KT P6SM SCT250=

USA.gov is the U.S. government's official web portal to all federal, state and local government web resources and services.